sensor_id;sensor_type;location;lat;lon;timestamp;P1;durP1;ratioP1;P2;durP2;ratioP2
68993;SDS011;56054;50.968;5.816;2023-08-08T00:02:28;5.03;;;2.17;;
68993;SDS011;56054;50.968;5.816;2023-08-08T00:05:35;4.68;;;2.30;;
68993;SDS011;56054;50.968;5.816;2023-08-08T00:08:42;5.25;;;2.00;;
68993;SDS011;56054;50.968;5.816;2023-08-08T00:11:49;6.20;;;2.40;;
68993;SDS011;56054;50.968;5.816;2023-08-08T00:14:56;4.80;;;1.90;;
68993;SDS011;56054;50.968;5.816;2023-08-08T00:18:04;2.40;;;2.03;;
68993;SDS011;56054;50.968;5.816;2023-08-08T00:21:10;4.28;;;2.42;;
68993;SDS011;56054;50.968;5.816;2023-08-08T00:24:17;7.32;;;2.00;;
68993;SDS011;56054;50.968;5.816;2023-08-08T00:27:24;8.68;;;2.78;;
68993;SDS011;56054;50.968;5.816;2023-08-08T00:30:31;7.55;;;2.13;;
68993;SDS011;56054;50.968;5.816;2023-08-08T00:33:38;6.47;;;2.17;;
68993;SDS011;56054;50.968;5.816;2023-08-08T00:36:45;3.63;;;2.42;;
68993;SDS011;56054;50.968;5.816;2023-08-08T00:39:52;5.18;;;1.90;;
68993;SDS011;56054;50.968;5.816;2023-08-08T00:43:00;5.30;;;2.35;;
68993;SDS011;56054;50.968;5.816;2023-08-08T00:46:08;8.43;;;2.28;;
68993;SDS011;56054;50.968;5.816;2023-08-08T00:49:14;5.32;;;2.30;;
68993;SDS011;56054;50.968;5.816;2023-08-08T00:52:24;3.78;;;2.10;;
68993;SDS011;56054;50.968;5.816;2023-08-08T00:55:31;6.45;;;2.28;;
68993;SDS011;56054;50.968;5.816;2023-08-08T00:58:37;4.75;;;2.10;;
68993;SDS011;56054;50.968;5.816;2023-08-08T01:01:45;3.60;;;1.73;;
68993;SDS011;56054;50.968;5.816;2023-08-08T01:04:51;3.03;;;1.75;;
68993;SDS011;56054;50.968;5.816;2023-08-08T01:08:00;6.28;;;1.90;;
68993;SDS011;56054;50.968;5.816;2023-08-08T01:11:11;7.20;;;1.90;;
68993;SDS011;56054;50.968;5.816;2023-08-08T01:14:19;4.38;;;1.65;;
68993;SDS011;56054;50.968;5.816;2023-08-08T01:17:29;4.95;;;1.60;;
68993;SDS011;56054;50.968;5.816;2023-08-08T01:20:37;3.08;;;1.88;;
68993;SDS011;56054;50.968;5.816;2023-08-08T01:23:46;5.82;;;1.45;;
68993;SDS011;56054;50.968;5.816;2023-08-08T01:26:56;5.70;;;1.73;;
68993;SDS011;56054;50.968;5.816;2023-08-08T01:30:04;6.22;;;1.60;;
68993;SDS011;56054;50.968;5.816;2023-08-08T01:33:13;4.68;;;1.90;;
68993;SDS011;56054;50.968;5.816;2023-08-08T01:36:22;6.65;;;2.08;;
68993;SDS011;56054;50.968;5.816;2023-08-08T01:39:41;4.47;;;1.92;;
68993;SDS011;56054;50.968;5.816;2023-08-08T01:42:49;4.38;;;1.52;;
68993;SDS011;56054;50.968;5.816;2023-08-08T01:45:58;5.22;;;1.58;;
68993;SDS011;56054;50.968;5.816;2023-08-08T01:49:05;5.75;;;1.90;;
68993;SDS011;56054;50.968;5.816;2023-08-08T01:52:12;8.60;;;2.30;;
68993;SDS011;56054;50.968;5.816;2023-08-08T01:55:20;5.85;;;2.22;;
68993;SDS011;56054;50.968;5.816;2023-08-08T01:58:26;7.05;;;2.25;;
68993;SDS011;56054;50.968;5.816;2023-08-08T02:01:34;9.02;;;2.30;;
68993;SDS011;56054;50.968;5.816;2023-08-08T02:04:41;7.82;;;2.15;;
68993;SDS011;56054;50.968;5.816;2023-08-08T02:07:47;3.80;;;1.85;;
68993;SDS011;56054;50.968;5.816;2023-08-08T02:11:01;4.20;;;2.00;;
68993;SDS011;56054;50.968;5.816;2023-08-08T02:14:08;9.13;;;2.10;;
68993;SDS011;56054;50.968;5.816;2023-08-08T02:17:16;7.88;;;2.40;;
68993;SDS011;56054;50.968;5.816;2023-08-08T02:20:23;6.85;;;2.33;;
68993;SDS011;56054;50.968;5.816;2023-08-08T02:23:30;5.85;;;2.00;;
68993;SDS011;56054;50.968;5.816;2023-08-08T02:26:37;8.52;;;2.70;;
68993;SDS011;56054;50.968;5.816;2023-08-08T02:29:44;6.13;;;2.40;;
68993;SDS011;56054;50.968;5.816;2023-08-08T02:32:51;5.30;;;2.78;;
68993;SDS011;56054;50.968;5.816;2023-08-08T02:36:00;6.28;;;2.30;;
68993;SDS011;56054;50.968;5.816;2023-08-08T02:39:07;7.45;;;2.42;;
68993;SDS011;56054;50.968;5.816;2023-08-08T02:42:14;9.15;;;2.22;;
68993;SDS011;56054;50.968;5.816;2023-08-08T02:45:21;4.60;;;1.98;;
68993;SDS011;56054;50.968;5.816;2023-08-08T02:48:29;6.00;;;2.80;;
68993;SDS011;56054;50.968;5.816;2023-08-08T02:51:37;12.10;;;2.13;;
68993;SDS011;56054;50.968;5.816;2023-08-08T02:54:44;6.60;;;2.75;;
68993;SDS011;56054;50.968;5.816;2023-08-08T02:57:51;7.28;;;2.63;;
68993;SDS011;56054;50.968;5.816;2023-08-08T03:00:58;9.32;;;2.75;;
68993;SDS011;56054;50.968;5.816;2023-08-08T03:04:05;8.10;;;2.47;;
68993;SDS011;56054;50.968;5.816;2023-08-08T03:07:13;8.45;;;2.60;;
68993;SDS011;56054;50.968;5.816;2023-08-08T03:10:20;9.13;;;2.63;;
68993;SDS011;56054;50.968;5.816;2023-08-08T03:13:27;9.55;;;2.83;;
68993;SDS011;56054;50.968;5.816;2023-08-08T03:16:34;9.15;;;2.42;;
68993;SDS011;56054;50.968;5.816;2023-08-08T03:19:43;8.75;;;3.15;;
68993;SDS011;56054;50.968;5.816;2023-08-08T03:22:51;9.85;;;3.00;;
68993;SDS011;56054;50.968;5.816;2023-08-08T03:25:58;10.48;;;2.55;;
68993;SDS011;56054;50.968;5.816;2023-08-08T03:29:05;12.68;;;3.50;;
68993;SDS011;56054;50.968;5.816;2023-08-08T03:32:16;6.55;;;2.88;;
68993;SDS011;56054;50.968;5.816;2023-08-08T03:35:24;7.37;;;2.30;;
68993;SDS011;56054;50.968;5.816;2023-08-08T03:38:31;9.03;;;3.07;;
68993;SDS011;56054;50.968;5.816;2023-08-08T03:41:38;10.15;;;3.05;;
68993;SDS011;56054;50.968;5.816;2023-08-08T03:44:45;7.15;;;2.72;;
68993;SDS011;56054;50.968;5.816;2023-08-08T03:47:52;7.97;;;3.30;;
68993;SDS011;56054;50.968;5.816;2023-08-08T03:50:59;9.55;;;2.90;;
68993;SDS011;56054;50.968;5.816;2023-08-08T03:54:06;6.88;;;2.80;;
68993;SDS011;56054;50.968;5.816;2023-08-08T03:57:13;7.82;;;2.70;;
68993;SDS011;56054;50.968;5.816;2023-08-08T04:00:20;10.93;;;2.90;;
68993;SDS011;56054;50.968;5.816;2023-08-08T04:03:26;5.90;;;2.50;;
68993;SDS011;56054;50.968;5.816;2023-08-08T04:06:34;10.60;;;3.03;;
68993;SDS011;56054;50.968;5.816;2023-08-08T04:09:41;10.90;;;3.08;;
68993;SDS011;56054;50.968;5.816;2023-08-08T04:12:49;14.60;;;3.10;;
68993;SDS011;56054;50.968;5.816;2023-08-08T04:15:56;8.70;;;2.50;;
68993;SDS011;56054;50.968;5.816;2023-08-08T04:19:03;9.60;;;2.85;;
68993;SDS011;56054;50.968;5.816;2023-08-08T04:22:10;10.32;;;2.85;;
68993;SDS011;56054;50.968;5.816;2023-08-08T04:25:17;8.18;;;3.10;;
68993;SDS011;56054;50.968;5.816;2023-08-08T04:28:24;7.18;;;2.83;;
68993;SDS011;56054;50.968;5.816;2023-08-08T04:31:31;9.82;;;3.17;;
68993;SDS011;56054;50.968;5.816;2023-08-08T04:34:38;9.32;;;3.03;;
68993;SDS011;56054;50.968;5.816;2023-08-08T04:37:45;10.27;;;3.80;;
68993;SDS011;56054;50.968;5.816;2023-08-08T04:40:52;10.83;;;2.73;;
68993;SDS011;56054;50.968;5.816;2023-08-08T04:43:59;14.48;;;3.70;;
68993;SDS011;56054;50.968;5.816;2023-08-08T04:47:06;10.70;;;2.90;;
68993;SDS011;56054;50.968;5.816;2023-08-08T04:50:13;8.63;;;2.67;;
68993;SDS011;56054;50.968;5.816;2023-08-08T04:53:20;8.85;;;2.85;;
68993;SDS011;56054;50.968;5.816;2023-08-08T04:56:27;7.25;;;2.55;;
68993;SDS011;56054;50.968;5.816;2023-08-08T04:59:34;10.13;;;3.00;;
68993;SDS011;56054;50.968;5.816;2023-08-08T05:02:41;8.02;;;3.08;;
68993;SDS011;56054;50.968;5.816;2023-08-08T05:05:48;7.82;;;2.72;;
68993;SDS011;56054;50.968;5.816;2023-08-08T05:08:55;10.05;;;2.92;;
68993;SDS011;56054;50.968;5.816;2023-08-08T05:12:02;10.90;;;2.83;;
68993;SDS011;56054;50.968;5.816;2023-08-08T05:15:09;8.10;;;2.80;;
68993;SDS011;56054;50.968;5.816;2023-08-08T05:18:16;12.83;;;3.50;;
68993;SDS011;56054;50.968;5.816;2023-08-08T05:21:23;10.05;;;2.50;;
68993;SDS011;56054;50.968;5.816;2023-08-08T05:24:30;13.53;;;3.10;;
68993;SDS011;56054;50.968;5.816;2023-08-08T05:27:37;10.17;;;2.63;;
68993;SDS011;56054;50.968;5.816;2023-08-08T05:30:44;8.48;;;2.88;;
68993;SDS011;56054;50.968;5.816;2023-08-08T05:33:51;11.73;;;2.70;;
68993;SDS011;56054;50.968;5.816;2023-08-08T05:36:58;6.97;;;2.80;;
68993;SDS011;56054;50.968;5.816;2023-08-08T05:40:05;9.20;;;2.83;;
68993;SDS011;56054;50.968;5.816;2023-08-08T05:43:12;10.88;;;2.97;;
68993;SDS011;56054;50.968;5.816;2023-08-08T05:46:19;10.23;;;2.88;;
68993;SDS011;56054;50.968;5.816;2023-08-08T05:49:26;10.32;;;2.90;;
68993;SDS011;56054;50.968;5.816;2023-08-08T05:52:33;10.65;;;3.15;;
68993;SDS011;56054;50.968;5.816;2023-08-08T05:55:43;15.48;;;3.63;;
68993;SDS011;56054;50.968;5.816;2023-08-08T05:58:50;10.07;;;2.47;;
68993;SDS011;56054;50.968;5.816;2023-08-08T06:01:57;13.20;;;3.33;;
68993;SDS011;56054;50.968;5.816;2023-08-08T06:05:04;10.18;;;3.15;;
68993;SDS011;56054;50.968;5.816;2023-08-08T06:08:12;10.10;;;3.40;;
68993;SDS011;56054;50.968;5.816;2023-08-08T06:11:19;14.63;;;3.20;;
68993;SDS011;56054;50.968;5.816;2023-08-08T06:14:26;7.80;;;3.15;;
68993;SDS011;56054;50.968;5.816;2023-08-08T06:17:33;12.57;;;3.63;;
68993;SDS011;56054;50.968;5.816;2023-08-08T06:20:40;8.38;;;3.20;;
68993;SDS011;56054;50.968;5.816;2023-08-08T06:23:47;9.38;;;3.20;;
68993;SDS011;56054;50.968;5.816;2023-08-08T06:26:54;15.48;;;3.42;;
68993;SDS011;56054;50.968;5.816;2023-08-08T06:30:01;9.85;;;3.28;;
68993;SDS011;56054;50.968;5.816;2023-08-08T06:33:08;19.50;;;3.45;;
68993;SDS011;56054;50.968;5.816;2023-08-08T06:36:15;8.65;;;3.03;;
68993;SDS011;56054;50.968;5.816;2023-08-08T06:39:22;10.45;;;3.33;;
68993;SDS011;56054;50.968;5.816;2023-08-08T06:42:29;11.15;;;3.50;;
68993;SDS011;56054;50.968;5.816;2023-08-08T06:45:36;11.10;;;3.25;;
68993;SDS011;56054;50.968;5.816;2023-08-08T06:48:43;12.80;;;3.10;;
68993;SDS011;56054;50.968;5.816;2023-08-08T06:51:50;13.05;;;3.42;;
68993;SDS011;56054;50.968;5.816;2023-08-08T06:54:57;14.38;;;3.85;;
68993;SDS011;56054;50.968;5.816;2023-08-08T06:58:04;14.40;;;5.13;;
68993;SDS011;56054;50.968;5.816;2023-08-08T07:01:11;12.45;;;3.47;;
68993;SDS011;56054;50.968;5.816;2023-08-08T07:04:18;11.25;;;3.40;;
68993;SDS011;56054;50.968;5.816;2023-08-08T07:07:25;10.90;;;3.50;;
68993;SDS011;56054;50.968;5.816;2023-08-08T07:10:32;9.65;;;3.38;;
68993;SDS011;56054;50.968;5.816;2023-08-08T07:13:39;13.80;;;3.25;;
68993;SDS011;56054;50.968;5.816;2023-08-08T07:16:46;9.07;;;2.97;;
68993;SDS011;56054;50.968;5.816;2023-08-08T07:19:53;13.50;;;2.65;;
68993;SDS011;56054;50.968;5.816;2023-08-08T07:23:00;11.00;;;3.22;;
68993;SDS011;56054;50.968;5.816;2023-08-08T07:26:07;13.18;;;2.75;;
68993;SDS011;56054;50.968;5.816;2023-08-08T07:29:14;8.27;;;2.80;;
68993;SDS011;56054;50.968;5.816;2023-08-08T07:32:21;14.50;;;3.30;;
68993;SDS011;56054;50.968;5.816;2023-08-08T07:35:28;11.70;;;2.90;;
68993;SDS011;56054;50.968;5.816;2023-08-08T07:38:35;12.02;;;3.33;;
68993;SDS011;56054;50.968;5.816;2023-08-08T07:41:42;13.15;;;3.33;;
68993;SDS011;56054;50.968;5.816;2023-08-08T07:44:49;7.63;;;2.70;;
68993;SDS011;56054;50.968;5.816;2023-08-08T07:47:56;12.90;;;3.10;;
68993;SDS011;56054;50.968;5.816;2023-08-08T07:51:03;5.88;;;2.75;;
68993;SDS011;56054;50.968;5.816;2023-08-08T07:54:10;8.18;;;3.05;;
68993;SDS011;56054;50.968;5.816;2023-08-08T07:57:24;11.13;;;3.42;;
68993;SDS011;56054;50.968;5.816;2023-08-08T08:00:33;7.10;;;2.78;;
68993;SDS011;56054;50.968;5.816;2023-08-08T08:03:40;9.02;;;3.05;;
68993;SDS011;56054;50.968;5.816;2023-08-08T08:06:47;9.55;;;3.63;;
68993;SDS011;56054;50.968;5.816;2023-08-08T08:09:54;8.73;;;3.80;;
68993;SDS011;56054;50.968;5.816;2023-08-08T08:13:01;10.35;;;3.42;;
68993;SDS011;56054;50.968;5.816;2023-08-08T08:16:08;6.03;;;3.00;;
68993;SDS011;56054;50.968;5.816;2023-08-08T08:19:15;8.30;;;3.50;;
68993;SDS011;56054;50.968;5.816;2023-08-08T08:22:22;10.13;;;3.60;;
68993;SDS011;56054;50.968;5.816;2023-08-08T08:25:29;10.52;;;3.30;;
68993;SDS011;56054;50.968;5.816;2023-08-08T08:28:36;7.32;;;2.85;;
68993;SDS011;56054;50.968;5.816;2023-08-08T08:31:43;13.32;;;4.28;;
68993;SDS011;56054;50.968;5.816;2023-08-08T08:34:50;11.02;;;3.50;;
68993;SDS011;56054;50.968;5.816;2023-08-08T08:37:57;9.27;;;3.08;;
68993;SDS011;56054;50.968;5.816;2023-08-08T08:41:04;8.25;;;2.90;;
68993;SDS011;56054;50.968;5.816;2023-08-08T08:44:11;11.70;;;3.33;;
68993;SDS011;56054;50.968;5.816;2023-08-08T08:47:19;11.10;;;2.85;;
68993;SDS011;56054;50.968;5.816;2023-08-08T08:50:27;9.02;;;2.67;;
68993;SDS011;56054;50.968;5.816;2023-08-08T08:53:37;13.15;;;2.97;;
68993;SDS011;56054;50.968;5.816;2023-08-08T08:56:44;8.65;;;2.67;;
68993;SDS011;56054;50.968;5.816;2023-08-08T08:59:51;9.57;;;2.58;;
68993;SDS011;56054;50.968;5.816;2023-08-08T09:02:58;11.77;;;3.00;;
68993;SDS011;56054;50.968;5.816;2023-08-08T09:06:05;4.53;;;2.47;;
68993;SDS011;56054;50.968;5.816;2023-08-08T09:09:12;7.07;;;2.50;;
68993;SDS011;56054;50.968;5.816;2023-08-08T09:12:19;18.05;;;3.72;;
68993;SDS011;56054;50.968;5.816;2023-08-08T09:15:33;9.60;;;2.42;;
68993;SDS011;56054;50.968;5.816;2023-08-08T09:18:41;9.20;;;2.35;;
68993;SDS011;56054;50.968;5.816;2023-08-08T09:21:48;9.35;;;2.10;;
68993;SDS011;56054;50.968;5.816;2023-08-08T09:24:56;15.35;;;3.13;;
68993;SDS011;56054;50.968;5.816;2023-08-08T09:28:03;7.28;;;2.33;;
68993;SDS011;56054;50.968;5.816;2023-08-08T09:31:11;5.75;;;2.00;;
68993;SDS011;56054;50.968;5.816;2023-08-08T09:34:18;7.72;;;2.20;;
68993;SDS011;56054;50.968;5.816;2023-08-08T09:37:25;5.82;;;1.75;;
68993;SDS011;56054;50.968;5.816;2023-08-08T09:40:34;5.10;;;2.00;;
68993;SDS011;56054;50.968;5.816;2023-08-08T09:43:44;10.18;;;2.13;;
68993;SDS011;56054;50.968;5.816;2023-08-08T09:46:51;8.75;;;2.13;;
68993;SDS011;56054;50.968;5.816;2023-08-08T09:50:01;9.52;;;2.03;;
68993;SDS011;56054;50.968;5.816;2023-08-08T09:53:09;8.10;;;2.10;;
68993;SDS011;56054;50.968;5.816;2023-08-08T09:56:18;4.53;;;1.73;;
68993;SDS011;56054;50.968;5.816;2023-08-08T09:59:26;8.90;;;1.70;;
68993;SDS011;56054;50.968;5.816;2023-08-08T10:02:33;6.03;;;1.52;;
68993;SDS011;56054;50.968;5.816;2023-08-08T10:05:41;7.45;;;2.22;;
68993;SDS011;56054;50.968;5.816;2023-08-08T10:08:48;11.93;;;1.77;;
68993;SDS011;56054;50.968;5.816;2023-08-08T10:11:56;9.50;;;2.20;;
68993;SDS011;56054;50.968;5.816;2023-08-08T10:15:03;4.82;;;1.70;;
68993;SDS011;56054;50.968;5.816;2023-08-08T10:18:14;8.45;;;1.50;;
68993;SDS011;56054;50.968;5.816;2023-08-08T10:21:22;6.63;;;1.88;;
68993;SDS011;56054;50.968;5.816;2023-08-08T10:24:33;6.20;;;1.52;;
68993;SDS011;56054;50.968;5.816;2023-08-08T10:27:41;6.32;;;1.55;;
68993;SDS011;56054;50.968;5.816;2023-08-08T10:30:49;6.70;;;1.42;;
68993;SDS011;56054;50.968;5.816;2023-08-08T10:34:04;4.57;;;1.33;;
68993;SDS011;56054;50.968;5.816;2023-08-08T10:37:12;8.35;;;1.70;;
68993;SDS011;56054;50.968;5.816;2023-08-08T10:40:24;7.20;;;1.90;;
68993;SDS011;56054;50.968;5.816;2023-08-08T10:43:46;7.88;;;1.80;;
68993;SDS011;56054;50.968;5.816;2023-08-08T10:46:55;7.13;;;2.60;;
68993;SDS011;56054;50.968;5.816;2023-08-08T10:50:05;5.45;;;1.20;;
68993;SDS011;56054;50.968;5.816;2023-08-08T10:53:14;10.00;;;2.08;;
68993;SDS011;56054;50.968;5.816;2023-08-08T10:56:22;12.18;;;1.75;;
68993;SDS011;56054;50.968;5.816;2023-08-08T10:59:38;5.95;;;1.90;;
68993;SDS011;56054;50.968;5.816;2023-08-08T11:02:45;6.85;;;1.42;;
68993;SDS011;56054;50.968;5.816;2023-08-08T11:05:53;7.78;;;1.80;;
68993;SDS011;56054;50.968;5.816;2023-08-08T11:09:00;10.40;;;1.88;;
68993;SDS011;56054;50.968;5.816;2023-08-08T11:12:14;13.38;;;1.65;;
68993;SDS011;56054;50.968;5.816;2023-08-08T11:15:22;4.38;;;1.40;;
68993;SDS011;56054;50.968;5.816;2023-08-08T11:18:29;5.05;;;1.60;;
68993;SDS011;56054;50.968;5.816;2023-08-08T11:21:36;9.55;;;1.80;;
68993;SDS011;56054;50.968;5.816;2023-08-08T11:24:44;2.22;;;1.15;;
68993;SDS011;56054;50.968;5.816;2023-08-08T11:27:51;5.90;;;1.45;;
68993;SDS011;56054;50.968;5.816;2023-08-08T11:30:59;4.78;;;1.42;;
68993;SDS011;56054;50.968;5.816;2023-08-08T11:34:06;8.38;;;1.73;;
68993;SDS011;56054;50.968;5.816;2023-08-08T11:37:14;6.00;;;1.30;;
68993;SDS011;56054;50.968;5.816;2023-08-08T11:40:21;3.67;;;1.30;;
68993;SDS011;56054;50.968;5.816;2023-08-08T11:43:30;4.95;;;1.40;;
68993;SDS011;56054;50.968;5.816;2023-08-08T11:46:46;5.88;;;1.55;;
68993;SDS011;56054;50.968;5.816;2023-08-08T11:49:53;9.32;;;1.63;;
68993;SDS011;56054;50.968;5.816;2023-08-08T11:53:00;7.53;;;1.50;;
68993;SDS011;56054;50.968;5.816;2023-08-08T11:56:07;5.90;;;1.38;;
68993;SDS011;56054;50.968;5.816;2023-08-08T11:59:14;6.70;;;2.35;;
68993;SDS011;56054;50.968;5.816;2023-08-08T12:02:22;5.65;;;1.70;;
68993;SDS011;56054;50.968;5.816;2023-08-08T12:05:29;9.60;;;2.08;;
68993;SDS011;56054;50.968;5.816;2023-08-08T12:08:36;5.30;;;1.50;;
68993;SDS011;56054;50.968;5.816;2023-08-08T12:11:43;7.90;;;1.80;;
68993;SDS011;56054;50.968;5.816;2023-08-08T12:14:53;8.20;;;1.52;;
68993;SDS011;56054;50.968;5.816;2023-08-08T12:18:01;7.53;;;1.50;;
68993;SDS011;56054;50.968;5.816;2023-08-08T12:21:09;4.32;;;1.15;;
68993;SDS011;56054;50.968;5.816;2023-08-08T12:24:16;4.20;;;1.40;;
68993;SDS011;56054;50.968;5.816;2023-08-08T12:27:24;6.07;;;1.60;;
68993;SDS011;56054;50.968;5.816;2023-08-08T12:30:31;7.63;;;1.35;;
68993;SDS011;56054;50.968;5.816;2023-08-08T12:33:38;6.05;;;1.67;;
68993;SDS011;56054;50.968;5.816;2023-08-08T12:36:45;7.18;;;1.40;;
68993;SDS011;56054;50.968;5.816;2023-08-08T12:39:52;7.90;;;1.83;;
68993;SDS011;56054;50.968;5.816;2023-08-08T12:42:59;2.42;;;1.40;;
68993;SDS011;56054;50.968;5.816;2023-08-08T12:46:06;7.60;;;1.70;;
68993;SDS011;56054;50.968;5.816;2023-08-08T12:49:13;3.28;;;1.45;;
68993;SDS011;56054;50.968;5.816;2023-08-08T12:52:20;6.38;;;1.63;;
68993;SDS011;56054;50.968;5.816;2023-08-08T12:55:27;6.97;;;1.80;;
68993;SDS011;56054;50.968;5.816;2023-08-08T12:58:34;4.78;;;1.90;;
68993;SDS011;56054;50.968;5.816;2023-08-08T13:01:41;10.55;;;2.08;;
68993;SDS011;56054;50.968;5.816;2023-08-08T13:04:48;3.05;;;1.42;;
68993;SDS011;56054;50.968;5.816;2023-08-08T13:07:55;8.18;;;1.45;;
68993;SDS011;56054;50.968;5.816;2023-08-08T13:11:02;6.60;;;1.33;;
68993;SDS011;56054;50.968;5.816;2023-08-08T13:14:09;7.25;;;1.45;;
68993;SDS011;56054;50.968;5.816;2023-08-08T13:17:23;7.97;;;1.48;;
68993;SDS011;56054;50.968;5.816;2023-08-08T13:20:30;6.65;;;1.40;;
68993;SDS011;56054;50.968;5.816;2023-08-08T13:23:37;5.95;;;1.10;;
68993;SDS011;56054;50.968;5.816;2023-08-08T13:26:44;6.78;;;1.42;;
68993;SDS011;56054;50.968;5.816;2023-08-08T13:29:51;12.18;;;1.73;;
68993;SDS011;56054;50.968;5.816;2023-08-08T13:32:58;9.65;;;1.63;;
68993;SDS011;56054;50.968;5.816;2023-08-08T13:36:06;6.97;;;1.48;;
68993;SDS011;56054;50.968;5.816;2023-08-08T13:39:13;4.72;;;1.38;;
68993;SDS011;56054;50.968;5.816;2023-08-08T13:42:21;9.05;;;1.85;;
68993;SDS011;56054;50.968;5.816;2023-08-08T13:45:28;7.95;;;1.60;;
68993;SDS011;56054;50.968;5.816;2023-08-08T13:48:35;6.78;;;1.60;;
68993;SDS011;56054;50.968;5.816;2023-08-08T13:51:43;5.35;;;1.50;;
68993;SDS011;56054;50.968;5.816;2023-08-08T13:54:50;6.60;;;1.50;;
68993;SDS011;56054;50.968;5.816;2023-08-08T13:57:57;4.85;;;1.15;;
68993;SDS011;56054;50.968;5.816;2023-08-08T14:01:04;3.15;;;1.70;;
68993;SDS011;56054;50.968;5.816;2023-08-08T14:04:11;13.15;;;1.92;;
68993;SDS011;56054;50.968;5.816;2023-08-08T14:07:18;7.82;;;1.35;;
68993;SDS011;56054;50.968;5.816;2023-08-08T14:10:25;5.95;;;1.42;;
68993;SDS011;56054;50.968;5.816;2023-08-08T14:13:32;3.15;;;1.00;;
68993;SDS011;56054;50.968;5.816;2023-08-08T14:16:39;7.63;;;1.20;;
68993;SDS011;56054;50.968;5.816;2023-08-08T14:19:46;4.75;;;1.23;;
68993;SDS011;56054;50.968;5.816;2023-08-08T14:22:53;9.77;;;1.73;;
68993;SDS011;56054;50.968;5.816;2023-08-08T14:26:07;7.32;;;1.30;;
68993;SDS011;56054;50.968;5.816;2023-08-08T14:29:14;3.40;;;1.20;;
68993;SDS011;56054;50.968;5.816;2023-08-08T14:32:21;7.47;;;1.52;;
68993;SDS011;56054;50.968;5.816;2023-08-08T14:35:28;2.70;;;1.20;;
68993;SDS011;56054;50.968;5.816;2023-08-08T14:38:35;2.28;;;1.15;;
68993;SDS011;56054;50.968;5.816;2023-08-08T14:41:42;4.13;;;1.27;;
68993;SDS011;56054;50.968;5.816;2023-08-08T14:44:49;5.10;;;1.30;;
68993;SDS011;56054;50.968;5.816;2023-08-08T14:47:56;4.00;;;1.10;;
68993;SDS011;56054;50.968;5.816;2023-08-08T14:51:03;6.63;;;1.20;;
68993;SDS011;56054;50.968;5.816;2023-08-08T14:54:10;3.20;;;1.00;;
68993;SDS011;56054;50.968;5.816;2023-08-08T14:57:17;5.47;;;1.10;;
68993;SDS011;56054;50.968;5.816;2023-08-08T15:00:24;3.25;;;1.00;;
68993;SDS011;56054;50.968;5.816;2023-08-08T15:03:31;1.75;;;0.90;;
68993;SDS011;56054;50.968;5.816;2023-08-08T15:06:38;4.15;;;1.20;;
68993;SDS011;56054;50.968;5.816;2023-08-08T15:09:45;2.92;;;1.45;;
68993;SDS011;56054;50.968;5.816;2023-08-08T15:12:52;2.28;;;1.20;;
68993;SDS011;56054;50.968;5.816;2023-08-08T15:15:59;7.85;;;1.35;;
68993;SDS011;56054;50.968;5.816;2023-08-08T15:19:07;5.97;;;1.00;;
68993;SDS011;56054;50.968;5.816;2023-08-08T15:22:14;3.70;;;1.20;;
68993;SDS011;56054;50.968;5.816;2023-08-08T15:25:21;3.63;;;1.00;;
68993;SDS011;56054;50.968;5.816;2023-08-08T15:28:28;5.30;;;1.10;;
68993;SDS011;56054;50.968;5.816;2023-08-08T15:31:35;1.92;;;0.90;;
68993;SDS011;56054;50.968;5.816;2023-08-08T15:34:42;2.80;;;1.02;;
68993;SDS011;56054;50.968;5.816;2023-08-08T15:37:49;4.22;;;1.10;;
68993;SDS011;56054;50.968;5.816;2023-08-08T15:40:56;3.33;;;1.10;;
68993;SDS011;56054;50.968;5.816;2023-08-08T15:44:03;2.42;;;0.90;;
68993;SDS011;56054;50.968;5.816;2023-08-08T15:47:17;4.88;;;1.10;;
68993;SDS011;56054;50.968;5.816;2023-08-08T15:50:24;4.28;;;1.15;;
68993;SDS011;56054;50.968;5.816;2023-08-08T15:53:31;2.45;;;1.02;;
68993;SDS011;56054;50.968;5.816;2023-08-08T15:56:38;3.58;;;1.02;;
68993;SDS011;56054;50.968;5.816;2023-08-08T15:59:45;3.85;;;1.08;;
68993;SDS011;56054;50.968;5.816;2023-08-08T16:02:52;5.72;;;1.10;;
68993;SDS011;56054;50.968;5.816;2023-08-08T16:05:59;4.22;;;1.15;;
68993;SDS011;56054;50.968;5.816;2023-08-08T16:09:06;2.58;;;1.20;;
68993;SDS011;56054;50.968;5.816;2023-08-08T16:12:13;2.10;;;0.85;;
68993;SDS011;56054;50.968;5.816;2023-08-08T16:15:20;2.50;;;0.90;;
68993;SDS011;56054;50.968;5.816;2023-08-08T16:18:28;3.47;;;1.05;;
68993;SDS011;56054;50.968;5.816;2023-08-08T16:21:35;2.50;;;1.13;;
68993;SDS011;56054;50.968;5.816;2023-08-08T16:24:42;1.63;;;0.77;;
68993;SDS011;56054;50.968;5.816;2023-08-08T16:27:49;7.70;;;1.45;;
68993;SDS011;56054;50.968;5.816;2023-08-08T16:30:56;4.10;;;1.00;;
68993;SDS011;56054;50.968;5.816;2023-08-08T16:34:03;5.97;;;0.95;;
68993;SDS011;56054;50.968;5.816;2023-08-08T16:37:10;2.20;;;1.00;;
68993;SDS011;56054;50.968;5.816;2023-08-08T16:40:17;3.80;;;1.10;;
68993;SDS011;56054;50.968;5.816;2023-08-08T16:43:24;3.00;;;1.10;;
68993;SDS011;56054;50.968;5.816;2023-08-08T16:46:31;6.22;;;1.10;;
68993;SDS011;56054;50.968;5.816;2023-08-08T16:49:38;4.20;;;1.02;;
68993;SDS011;56054;50.968;5.816;2023-08-08T16:52:45;5.20;;;1.33;;
68993;SDS011;56054;50.968;5.816;2023-08-08T16:55:52;4.00;;;0.90;;
68993;SDS011;56054;50.968;5.816;2023-08-08T16:58:59;9.35;;;1.20;;
68993;SDS011;56054;50.968;5.816;2023-08-08T17:02:06;3.88;;;1.25;;
68993;SDS011;56054;50.968;5.816;2023-08-08T17:05:13;1.50;;;0.70;;
68993;SDS011;56054;50.968;5.816;2023-08-08T17:08:20;2.40;;;1.05;;
68993;SDS011;56054;50.968;5.816;2023-08-08T17:11:27;4.65;;;0.82;;
68993;SDS011;56054;50.968;5.816;2023-08-08T17:14:34;1.65;;;0.82;;
68993;SDS011;56054;50.968;5.816;2023-08-08T17:17:41;3.00;;;1.00;;
68993;SDS011;56054;50.968;5.816;2023-08-08T17:20:48;2.38;;;0.80;;
68993;SDS011;56054;50.968;5.816;2023-08-08T17:23:55;5.90;;;1.10;;
68993;SDS011;56054;50.968;5.816;2023-08-08T17:27:02;3.58;;;1.08;;
68993;SDS011;56054;50.968;5.816;2023-08-08T17:30:09;2.45;;;0.90;;
68993;SDS011;56054;50.968;5.816;2023-08-08T17:33:16;2.70;;;0.90;;
68993;SDS011;56054;50.968;5.816;2023-08-08T17:36:23;2.60;;;0.95;;
68993;SDS011;56054;50.968;5.816;2023-08-08T17:39:30;3.22;;;0.82;;
68993;SDS011;56054;50.968;5.816;2023-08-08T17:42:37;1.60;;;0.70;;
68993;SDS011;56054;50.968;5.816;2023-08-08T17:45:44;4.68;;;1.15;;
68993;SDS011;56054;50.968;5.816;2023-08-08T17:48:51;2.13;;;1.00;;
68993;SDS011;56054;50.968;5.816;2023-08-08T17:51:58;3.50;;;1.15;;
68993;SDS011;56054;50.968;5.816;2023-08-08T17:55:05;6.40;;;1.15;;
68993;SDS011;56054;50.968;5.816;2023-08-08T17:58:12;2.67;;;1.00;;
68993;SDS011;56054;50.968;5.816;2023-08-08T18:01:19;2.83;;;1.30;;
68993;SDS011;56054;50.968;5.816;2023-08-08T18:04:26;2.92;;;1.17;;
68993;SDS011;56054;50.968;5.816;2023-08-08T18:07:33;2.72;;;1.02;;
68993;SDS011;56054;50.968;5.816;2023-08-08T18:10:40;4.32;;;0.90;;
68993;SDS011;56054;50.968;5.816;2023-08-08T18:13:47;4.80;;;1.00;;
68993;SDS011;56054;50.968;5.816;2023-08-08T18:16:54;3.10;;;0.88;;
68993;SDS011;56054;50.968;5.816;2023-08-08T18:20:01;1.52;;;0.52;;
68993;SDS011;56054;50.968;5.816;2023-08-08T18:23:10;4.43;;;0.90;;
68993;SDS011;56054;50.968;5.816;2023-08-08T18:26:16;1.98;;;0.88;;
68993;SDS011;56054;50.968;5.816;2023-08-08T18:29:23;2.97;;;1.00;;
68993;SDS011;56054;50.968;5.816;2023-08-08T18:32:30;5.85;;;1.25;;
68993;SDS011;56054;50.968;5.816;2023-08-08T18:35:37;6.88;;;1.00;;
68993;SDS011;56054;50.968;5.816;2023-08-08T18:38:44;3.60;;;1.00;;
68993;SDS011;56054;50.968;5.816;2023-08-08T18:41:51;1.15;;;0.80;;
68993;SDS011;56054;50.968;5.816;2023-08-08T18:44:58;1.75;;;1.00;;
68993;SDS011;56054;50.968;5.816;2023-08-08T18:48:05;6.38;;;1.30;;